Time;durP1;ratioP1;P1;durP2;ratioP2;P2;SDS_P1;SDS_P2;PMS_P1;PMS_P2;Temp;Humidity;BMP_temperature;BMP_pressure;BME280_temperature;BME280_humidity;BME280_pressure;Samples;Min_cycle;Max_cycle;Signal;HPM_P1;HPM_P2
2021/01/28 18:44:53;;;;;;;1999.90;999.90;;;0.30;99.90;;;;;;5038625;28;20620;-47
2021/01/28 18:47:18;;;;;;;1999.90;999.90;;;0.30;99.90;;;;;;5021657;28;20492;-46
2021/01/28 18:49:44;;;;;;;1999.90;999.90;;;0.30;99.90;;;;;;5018322;28;20190;-47
2021/01/28 18:52:10;;;;;;;1999.90;999.90;;;0.30;99.90;;;;;;5019138;28;20229;-47
2021/01/28 18:54:37;;;;;;;1999.90;999.90;;;0.30;99.90;;;;;;5022880;28;20218;-47
2021/01/28 18:57:03;;;;;;;1999.90;999.90;;;0.30;99.90;;;;;;5023344;28;20195;-47
2021/01/28 18:59:28;;;;;;;1999.90;999.90;;;0.30;99.90;;;;;;5025246;28;20433;-47
2021/01/28 19:01:54;;;;;;;1999.90;999.90;;;0.40;99.90;;;;;;5022957;28;20225;-47
2021/01/28 19:04:20;;;;;;;1999.90;999.90;;;0.40;99.90;;;;;;5026325;28;20225;-47
2021/01/28 19:06:46;;;;;;;1999.90;999.90;;;0.30;99.90;;;;;;5020133;28;20194;-47
2021/01/28 19:09:12;;;;;;;1999.90;999.90;;;0.40;99.90;;;;;;5025446;28;20931;-47
2021/01/28 19:11:38;;;;;;;1999.90;999.90;;;0.40;99.90;;;;;;5025824;28;20437;-47
2021/01/28 19:14:04;;;;;;;1999.90;999.90;;;0.40;99.90;;;;;;5024044;28;21020;-47
2021/01/28 19:16:30;;;;;;;1999.90;999.90;;;0.50;99.90;;;;;;5025519;28;20187;-47
2021/01/28 19:18:56;;;;;;;1999.90;999.90;;;0.50;99.90;;;;;;5025466;28;20507;-47
2021/01/28 19:21:22;;;;;;;1999.90;999.90;;;0.50;99.90;;;;;;5026785;28;20429;-47
2021/01/28 19:23:48;;;;;;;1999.90;999.90;;;0.50;99.90;;;;;;5026754;28;20461;-47
2021/01/28 19:26:13;;;;;;;1999.90;999.90;;;0.50;99.90;;;;;;5020648;28;20238;-47
2021/01/28 19:28:39;;;;;;;1999.90;999.90;;;0.50;99.90;;;;;;5032708;28;20206;-47
2021/01/28 19:31:05;;;;;;;1999.90;999.90;;;0.40;99.90;;;;;;5026577;28;20175;-47
2021/01/28 19:33:34;;;;;;;1999.90;999.90;;;0.40;99.90;;;;;;5026355;28;20615;-47
2021/01/28 19:36:02;;;;;;;1999.90;999.90;;;0.40;99.90;;;;;;5024521;28;20472;-47
2021/01/28 19:38:29;;;;;;;1999.90;999.90;;;0.40;99.90;;;;;;5023442;28;20593;-47
2021/01/28 19:40:56;;;;;;;1999.90;999.90;;;0.40;99.90;;;;;;5024108;28;20433;-47
2021/01/28 19:43:28;;;;;;;1999.90;999.90;;;0.40;99.90;;;;;;5025134;28;21090;-47
2021/01/28 19:45:54;;;;;;;1999.90;999.90;;;0.40;99.90;;;;;;5025448;28;20449;-47
2021/01/28 19:48:20;;;;;;;1999.90;999.90;;;0.40;99.90;;;;;;5025369;28;20925;-47
2021/01/28 19:50:47;;;;;;;1999.90;999.90;;;0.40;99.90;;;;;;5024832;28;20205;-47
2021/01/28 19:53:14;;;;;;;1999.90;999.90;;;0.40;99.90;;;;;;5019770;28;20497;-47
2021/01/28 19:55:40;;;;;;;1999.90;999.90;;;0.40;99.90;;;;;;5010162;28;20954;-47
2021/01/28 19:58:06;;;;;;;1999.90;999.90;;;0.40;99.90;;;;;;5011078;28;20422;-45
2021/01/28 20:00:34;;;;;;;1999.90;999.90;;;0.40;99.90;;;;;;5010536;28;21001;-45
2021/01/28 20:03:01;;;;;;;1999.90;999.90;;;0.40;99.90;;;;;;5007597;28;21300;-45
2021/01/28 20:05:28;;;;;;;1999.90;999.90;;;0.40;99.90;;;;;;5008274;28;20465;-47
2021/01/28 20:07:54;;;;;;;1999.90;999.90;;;0.40;99.90;;;;;;5009649;28;20465;-45
2021/01/28 20:10:23;;;;;;;1999.90;999.90;;;0.40;99.90;;;;;;5008540;28;20438;-46
2021/01/28 20:12:50;;;;;;;1999.90;999.90;;;0.40;99.90;;;;;;5007251;28;20211;-45
2021/01/28 20:15:18;;;;;;;1999.90;999.90;;;0.40;99.90;;;;;;5009768;28;20458;-46
2021/01/28 20:17:44;;;;;;;1999.90;999.90;;;0.40;99.90;;;;;;5005552;28;20504;-45
2021/01/28 20:20:13;;;;;;;1999.90;999.90;;;0.40;99.90;;;;;;5008543;28;20454;-45
2021/01/28 20:22:39;;;;;;;1999.90;999.90;;;0.40;99.90;;;;;;5007736;28;20442;-45
2021/01/28 20:25:06;;;;;;;1999.90;999.90;;;0.30;99.90;;;;;;5011543;28;20466;-46
2021/01/28 20:27:31;;;;;;;1999.90;999.90;;;0.30;99.90;;;;;;5006221;28;20508;-45
2021/01/28 20:29:57;;;;;;;1999.90;999.90;;;0.30;99.90;;;;;;5010749;28;21255;-45
2021/01/28 20:32:23;;;;;;;1999.90;999.90;;;0.30;99.90;;;;;;5011777;28;20186;-45
2021/01/28 20:34:48;;;;;;;1999.90;999.90;;;0.30;99.90;;;;;;5007209;28;20285;-46
2021/01/28 20:37:14;;;;;;;1999.90;999.90;;;0.30;99.90;;;;;;5011460;28;20202;-45
2021/01/28 20:39:39;;;;;;;1999.90;999.90;;;0.30;99.90;;;;;;5008881;28;20187;-46
2021/01/28 20:42:05;;;;;;;1999.90;999.90;;;0.30;99.90;;;;;;5009477;28;20188;-45
2021/01/28 20:44:31;;;;;;;1999.90;999.90;;;0.30;99.90;;;;;;5009686;28;20294;-45
2021/01/28 20:46:57;;;;;;;1999.90;999.90;;;0.30;99.90;;;;;;5010114;28;20496;-45
2021/01/28 20:49:23;;;;;;;1999.90;999.90;;;0.30;99.90;;;;;;5010530;28;20273;-45
2021/01/28 20:51:48;;;;;;;1999.90;999.90;;;0.30;99.90;;;;;;5010181;28;20183;-46
2021/01/28 20:54:14;;;;;;;1999.90;999.90;;;0.30;99.90;;;;;;5011870;28;20457;-45
2021/01/28 20:56:40;;;;;;;1999.90;999.90;;;0.20;99.90;;;;;;5010140;28;20879;-45
2021/01/28 20:59:05;;;;;;;1999.90;999.90;;;0.20;99.90;;;;;;5011448;28;20610;-45
2021/01/28 21:01:31;;;;;;;1999.90;999.90;;;0.30;99.90;;;;;;5007469;28;20195;-45
2021/01/28 21:03:57;;;;;;;1999.90;999.90;;;0.30;99.90;;;;;;5010178;28;20207;-45
2021/01/28 21:06:23;;;;;;;1999.90;999.90;;;0.30;99.90;;;;;;5006956;28;20191;-45
2021/01/28 21:08:48;;;;;;;1999.90;999.90;;;0.30;99.90;;;;;;5007011;28;20187;-45
2021/01/28 21:11:14;;;;;;;1999.90;999.90;;;0.40;99.90;;;;;;5010561;28;20437;-45
2021/01/28 21:13:39;;;;;;;1999.90;999.90;;;0.40;99.90;;;;;;5003839;28;20217;-45
2021/01/28 21:16:08;;;;;;;1999.90;999.90;;;0.40;99.90;;;;;;5014751;28;20599;-45
2021/01/28 21:18:37;;;;;;;1999.90;999.90;;;0.40;99.90;;;;;;5014888;28;20203;-45
2021/01/28 21:21:04;;;;;;;1999.90;999.90;;;0.40;99.90;;;;;;5012703;28;20541;-45
2021/01/28 21:23:30;;;;;;;1999.90;999.90;;;0.40;99.90;;;;;;5017412;28;20469;-45
2021/01/28 21:25:56;;;;;;;1999.90;999.90;;;0.40;99.90;;;;;;5015721;28;20532;-45
2021/01/28 21:28:21;;;;;;;1999.90;999.90;;;0.40;99.90;;;;;;5018638;28;20218;-45
2021/01/28 21:30:49;;;;;;;1999.90;999.90;;;0.30;99.90;;;;;;5015358;28;20182;-45
2021/01/28 21:33:15;;;;;;;1999.90;999.90;;;0.30;99.90;;;;;;5011964;28;20521;-45
2021/01/28 21:35:41;;;;;;;1999.90;999.90;;;0.30;99.90;;;;;;5011636;28;20862;-46
2021/01/28 21:38:08;;;;;;;1999.90;999.90;;;0.30;99.90;;;;;;5011421;28;20436;-46
2021/01/28 21:40:34;;;;;;;1999.90;999.90;;;0.30;99.90;;;;;;5010716;28;20426;-45
2021/01/28 21:43:00;;;;;;;1999.90;999.90;;;0.30;99.90;;;;;;5007603;28;20546;-45
2021/01/28 21:45:30;;;;;;;1999.90;999.90;;;0.30;99.90;;;;;;5004734;28;20481;-46
2021/01/28 21:47:56;;;;;;;1999.90;999.90;;;0.40;99.90;;;;;;5006330;28;20518;-46
2021/01/28 21:50:28;;;;;;;1999.90;999.90;;;0.40;99.90;;;;;;5010132;28;20431;-46
2021/01/28 21:52:54;;;;;;;1999.90;999.90;;;0.40;99.90;;;;;;5008659;28;21034;-46
2021/01/28 21:55:20;;;;;;;1999.90;999.90;;;0.40;99.90;;;;;;5008362;28;20585;-46
2021/01/28 21:57:46;;;;;;;1999.90;999.90;;;0.30;99.90;;;;;;5010060;28;20475;-46
2021/01/28 22:00:13;;;;;;;1999.90;999.90;;;0.30;99.90;;;;;;5009316;28;20560;-46
2021/01/28 22:02:39;;;;;;;1999.90;999.90;;;0.30;99.90;;;;;;5010609;28;20191;-46
2021/01/28 22:05:06;;;;;;;1999.90;999.90;;;0.30;99.90;;;;;;5008006;28;20474;-46
2021/01/28 22:07:32;;;;;;;1999.90;999.90;;;0.30;99.90;;;;;;5008278;28;20516;-46
2021/01/28 22:09:57;;;;;;;1999.90;999.90;;;0.20;99.90;;;;;;5010518;28;20410;-45
2021/01/28 22:12:24;;;;;;;1999.90;999.90;;;0.30;99.90;;;;;;5009604;28;20608;-46
2021/01/28 22:14:50;;;;;;;1999.90;999.90;;;0.20;99.90;;;;;;5010526;28;20207;-46
2021/01/28 22:17:16;;;;;;;1999.90;999.90;;;0.20;99.90;;;;;;5010027;28;20446;-46
2021/01/28 22:19:42;;;;;;;1999.90;999.90;;;0.20;99.90;;;;;;5010778;28;20422;-46
2021/01/28 22:22:08;;;;;;;1999.90;999.90;;;0.20;99.90;;;;;;5009089;28;20446;-46
2021/01/28 22:24:33;;;;;;;1999.90;999.90;;;0.20;99.90;;;;;;5010729;28;20219;-46
2021/01/28 22:26:59;;;;;;;1999.90;999.90;;;0.10;99.90;;;;;;5008430;28;20199;-46
2021/01/28 22:29:25;;;;;;;1999.90;999.90;;;0.10;99.90;;;;;;5004142;28;20187;-46
2021/01/28 22:31:51;;;;;;;1999.90;999.90;;;0.20;99.90;;;;;;5008949;28;20195;-46
2021/01/28 22:34:17;;;;;;;1999.90;999.90;;;0.10;99.90;;;;;;5010588;28;20449;-46
2021/01/28 22:36:43;;;;;;;1999.90;999.90;;;0.10;99.90;;;;;;5008533;28;20889;-46
2021/01/28 22:39:09;;;;;;;1999.90;999.90;;;0.10;99.90;;;;;;5009778;28;20218;-46
2021/01/28 22:41:34;;;;;;;1999.90;999.90;;;0.20;99.90;;;;;;5009399;28;20201;-46
2021/01/28 22:44:01;;;;;;;1999.90;999.90;;;0.20;99.90;;;;;;5005858;28;20222;-46
2021/01/28 22:46:26;;;;;;;1999.90;999.90;;;0.20;99.90;;;;;;5001423;28;20566;-46
2021/01/28 22:48:52;;;;;;;1999.90;999.90;;;0.20;99.90;;;;;;5008786;28;20878;-46
2021/01/28 22:51:18;;;;;;;1999.90;999.90;;;0.30;99.90;;;;;;5009104;28;20981;-46
2021/01/28 22:53:43;;;;;;;1999.90;999.90;;;0.20;99.90;;;;;;5010517;28;20183;-46
2021/01/28 22:56:09;;;;;;;1999.90;999.90;;;0.20;99.90;;;;;;5010441;28;20211;-46
2021/01/28 22:58:34;;;;;;;1999.90;999.90;;;0.10;99.90;;;;;;5009307;28;20215;-46
2021/01/28 23:01:03;;;;;;;1999.90;999.90;;;0.10;99.90;;;;;;5009392;28;20281;-46
